createdAt,value
2022-08-17T00:01:33.350Z,101237.09
2022-08-17T00:04:19.390Z,101223.13
2022-08-17T00:06:49.240Z,101239.38
2022-08-17T00:09:19.057Z,101239.56
2022-08-17T00:12:40.695Z,101241.44
2022-08-17T00:14:35.174Z,101245.19
2022-08-17T00:17:03.773Z,101242.69
2022-08-17T00:19:32.462Z,101244.34
2022-08-17T00:22:32.989Z,101239.97
2022-08-17T00:24:47.320Z,101241.22
2022-08-17T00:27:13.933Z,101247.44
2022-08-17T00:29:40.610Z,101238.94
2022-08-17T00:33:15.603Z,101237.69
2022-08-17T00:34:53.758Z,101240.78
2022-08-17T00:37:20.319Z,101237.47
2022-08-17T00:39:46.908Z,101233.13
2022-08-17T00:42:18.823Z,101231.47
2022-08-17T00:44:46.237Z,101225.84
2022-08-17T00:47:12.789Z,101228.34
2022-08-17T00:49:39.563Z,101226.06
2022-08-17T00:52:15.526Z,101232.28
2022-08-17T00:54:46.524Z,101233.13
2022-08-17T00:57:18.549Z,101227.72
2022-08-17T01:00:01.909Z,101232.28
2022-08-17T01:02:34.936Z,101216.28
2022-08-17T01:05:14.881Z,101221.50
2022-08-17T01:07:42.864Z,101209.41
2022-08-17T01:10:58.881Z,101206.72
2022-08-17T01:13:02.513Z,101208.78
2022-08-17T01:15:36.493Z,101214.81
2022-08-17T01:18:05.400Z,101205.25
2022-08-17T01:20:32.539Z,101213.59
2022-08-17T01:23:19.867Z,101203.81
2022-08-17T01:25:53.386Z,101196.56
2022-08-17T01:28:52.251Z,101202.16
2022-08-17T01:31:09.243Z,101202.38
2022-08-17T01:33:36.549Z,101213.56
2022-08-17T01:36:04.173Z,101210.88
2022-08-17T01:38:31.919Z,101205.44
2022-08-17T01:41:07.922Z,101220.22
2022-08-17T01:43:57.296Z,101220.56
2022-08-17T01:46:28.254Z,101210.84
2022-08-17T01:48:56.461Z,101214.56
2022-08-17T01:51:25.937Z,101207.91
2022-08-17T01:53:57.540Z,101209.78
2022-08-17T01:56:25.423Z,101203.97
2022-08-17T01:58:52.831Z,101207.09
2022-08-17T02:01:22.825Z,101210.22
2022-08-17T02:03:56.203Z,101203.34
2022-08-17T02:06:47.051Z,101206.25
2022-08-17T02:09:19.215Z,101191.50
2022-08-17T02:11:49.929Z,101184.03
2022-08-17T02:14:16.761Z,101188.16
2022-08-17T02:16:43.681Z,101182.75
2022-08-17T02:19:15.600Z,101185.06
2022-08-17T02:21:44.795Z,101189.63
2022-08-17T02:25:00.288Z,101193.56
2022-08-17T02:27:05.960Z,101196.66
2022-08-17T02:29:32.760Z,101188.13
2022-08-17T02:32:00.269Z,101195.63
2022-08-17T02:34:27.522Z,101211.38
2022-08-17T02:36:54.090Z,101231.53
2022-08-17T02:39:20.630Z,101262.44
2022-08-17T02:41:47.383Z,101282.56
2022-08-17T02:44:13.938Z,101296.06
2022-08-17T02:47:00.857Z,101302.06
2022-08-17T02:49:27.408Z,101312.44
2022-08-17T02:51:53.894Z,101308.47
2022-08-17T02:54:40.076Z,101299.34
2022-08-17T02:57:06.880Z,101298.94
2022-08-17T02:59:33.391Z,101304.09
2022-08-17T03:01:59.927Z,101307.63
2022-08-17T03:04:26.484Z,101291.63
2022-08-17T03:06:53.089Z,101289.78
2022-08-17T03:09:19.596Z,101288.91
2022-08-17T03:11:46.147Z,101286.22
2022-08-17T03:14:13.157Z,101280.59
2022-08-17T03:16:41.008Z,101262.75
2022-08-17T03:19:08.999Z,101228.50
2022-08-17T03:21:35.576Z,101215.75
2022-08-17T03:24:02.426Z,101226.34
2022-08-17T03:26:35.486Z,101226.00
2022-08-17T03:29:02.020Z,101228.69
2022-08-17T03:31:28.647Z,101229.53
2022-08-17T03:33:56.261Z,101242.97
2022-08-17T03:36:23.190Z,101249.38
2022-08-17T03:38:49.695Z,101254.78
2022-08-17T03:41:17.688Z,101260.78
2022-08-17T03:43:44.195Z,101256.03
2022-08-17T03:46:35.145Z,101259.75
2022-08-17T03:49:26.914Z,101283.84
2022-08-17T03:52:13.505Z,101290.91
2022-08-17T03:55:00.619Z,101279.94
2022-08-17T03:57:27.482Z,101285.50
2022-08-17T03:59:55.278Z,101279.75
2022-08-17T04:02:25.599Z,101287.66
2022-08-17T04:04:53.806Z,101298.44
2022-08-17T04:07:22.862Z,101301.97
2022-08-17T04:09:49.465Z,101293.22
2022-08-17T04:12:18.540Z,101294.25
2022-08-17T04:14:53.503Z,101291.75
2022-08-17T04:17:26.862Z,101298.00
2022-08-17T04:19:54.488Z,101288.03
2022-08-17T04:22:30.753Z,101277.59
2022-08-17T04:25:05.205Z,101275.09
2022-08-17T04:27:31.832Z,101280.72
2022-08-17T04:29:58.713Z,101278.22
2022-08-17T04:32:59.337Z,101289.19
2022-08-17T04:35:11.906Z,101288.13
2022-08-17T04:37:38.413Z,101280.66
2022-08-17T04:40:28.606Z,101279.19
2022-08-17T04:43:04.180Z,101275.47
2022-08-17T04:45:32.361Z,101282.91
2022-08-17T04:48:00.429Z,101280.00
2022-08-17T04:50:27.489Z,101274.59
2022-08-17T04:52:54.053Z,101263.00
2022-08-17T04:55:20.772Z,101265.03
2022-08-17T04:57:47.293Z,101272.50
2022-08-17T05:00:14.190Z,101266.47
2022-08-17T05:02:50.947Z,101265.81
2022-08-17T05:05:22.933Z,101277.44
2022-08-17T05:07:58.788Z,101278.47
2022-08-17T05:10:28.240Z,101275.34
2022-08-17T05:13:07.137Z,101287.59
2022-08-17T05:15:36.214Z,101278.47
2022-08-17T05:18:03.662Z,101291.34
2022-08-17T05:20:30.406Z,101293.19
2022-08-17T05:22:59.643Z,101298.59
2022-08-17T05:25:32.763Z,101290.91
2022-08-17T05:28:02.206Z,101284.84
2022-08-17T05:30:28.855Z,101276.31
2022-08-17T05:33:00.503Z,101263.22
2022-08-17T05:35:29.609Z,101260.75
2022-08-17T05:37:57.559Z,101260.75
2022-08-17T05:40:25.983Z,101264.25
2022-08-17T05:43:10.831Z,101267.19
2022-08-17T05:46:02.088Z,101275.25
2022-08-17T05:48:35.536Z,101278.78
2022-08-17T05:51:09.450Z,101269.47
2022-08-17T05:54:04.453Z,101270.75
2022-08-17T05:56:34.032Z,101265.16
2022-08-17T05:59:13.586Z,101258.47
2022-08-17T06:02:05.323Z,101267.00
2022-08-17T06:04:40.674Z,101262.00
2022-08-17T06:07:28.352Z,101258.88
2022-08-17T06:10:10.872Z,101251.13
2022-08-17T06:12:49.820Z,101259.88
2022-08-17T06:15:34.489Z,101263.97
2022-08-17T06:18:05.642Z,101263.75
2022-08-17T06:20:53.180Z,101265.50
2022-08-17T06:23:42.809Z,101264.66
2022-08-17T06:26:17.559Z,101262.16
2022-08-17T06:28:53.150Z,101252.44
2022-08-17T06:31:22.535Z,101251.59
2022-08-17T06:33:50.425Z,101257.84
2022-08-17T06:36:32.785Z,101264.25
2022-08-17T06:39:08.095Z,101276.06
2022-08-17T06:41:51.061Z,101267.50
2022-08-17T06:44:43.682Z,101251.91
2022-08-17T06:47:28.726Z,101256.66
2022-08-17T06:50:01.500Z,101260.59
2022-08-17T06:52:45.763Z,101252.91
2022-08-17T06:55:21.342Z,101259.69
2022-08-17T06:57:52.482Z,101259.50
2022-08-17T07:00:23.850Z,101277.16
2022-08-17T07:03:06.235Z,101284.41
2022-08-17T07:05:38.851Z,101291.81
2022-08-17T07:08:35.798Z,101303.44
2022-08-17T07:11:09.924Z,101317.75
2022-08-17T07:13:43.263Z,101311.53
2022-08-17T07:16:24.860Z,101307.16
2022-08-17T07:18:54.674Z,101295.22
2022-08-17T07:21:51.959Z,101306.31
2022-08-17T07:24:35.494Z,101297.97
2022-08-17T07:27:37.111Z,101296.09
2022-08-17T07:30:10.827Z,101299.03
2022-08-17T07:32:51.144Z,101294.84
2022-08-17T07:35:37.754Z,101285.66
2022-08-17T07:38:56.439Z,101291.06
2022-08-17T07:41:23.274Z,101296.38
2022-08-17T07:43:52.527Z,101306.38
2022-08-17T07:46:43.927Z,101323.38
2022-08-17T07:49:10.392Z,101321.97
2022-08-17T07:51:39.265Z,101328.66
2022-08-17T07:54:29.523Z,101331.97
2022-08-17T07:57:00.240Z,101324.53
2022-08-17T07:59:33.236Z,101338.81
2022-08-17T08:02:06.201Z,101340.31
2022-08-17T08:04:59.829Z,101340.31
2022-08-17T08:07:31.968Z,101344.50
2022-08-17T08:10:07.588Z,101348.25
2022-08-17T08:12:36.298Z,101343.09
2022-08-17T08:15:12.598Z,101331.25
2022-08-17T08:17:50.055Z,101340.59
2022-08-17T08:20:37.850Z,101343.66
2022-08-17T08:23:19.087Z,101334.53
2022-08-17T08:26:18.463Z,101335.75
2022-08-17T08:29:28.103Z,101325.16
2022-08-17T08:32:20.457Z,101317.75
2022-08-17T08:35:02.878Z,101328.88
2022-08-17T08:37:55.905Z,101328.88
2022-08-17T08:40:44.067Z,101338.00
2022-08-17T08:43:10.709Z,101338.00
2022-08-17T08:46:01.928Z,101330.50
2022-08-17T08:48:53.043Z,101337.75
2022-08-17T08:51:52.779Z,101344.34
2022-08-17T08:54:48.306Z,101345.19
2022-08-17T08:57:34.142Z,101336.91
2022-08-17T09:00:19.065Z,101341.53
2022-08-17T09:02:54.456Z,101325.16
2022-08-17T09:05:42.740Z,101323.50
2022-08-17T09:08:09.171Z,101319.78
2022-08-17T09:10:44.826Z,101316.91
2022-08-17T09:13:22.110Z,101332.78
2022-08-17T09:15:57.311Z,101329.91
2022-08-17T09:19:03.034Z,101336.97
2022-08-17T09:21:27.116Z,101355.44
2022-08-17T09:24:23.884Z,101358.78
2022-08-17T09:26:59.389Z,101368.44
2022-08-17T09:29:29.521Z,101378.66
2022-08-17T09:31:59.615Z,101374.13
2022-08-17T09:34:43.573Z,101375.97
2022-08-17T09:37:25.843Z,101371.41
2022-08-17T09:40:09.597Z,101358.78
2022-08-17T09:42:45.452Z,101353.22
2022-08-17T09:45:30.985Z,101351.34
2022-08-17T09:48:18.165Z,101347.81
2022-08-17T09:51:05.453Z,101332.03
2022-08-17T09:53:36.779Z,101328.25
2022-08-17T09:56:08.981Z,101333.44
2022-08-17T09:59:04.663Z,101342.34
2022-08-17T10:01:43.103Z,101367.81
2022-08-17T10:04:23.809Z,101405.81
2022-08-17T10:07:03.574Z,101439.53
2022-08-17T10:09:46.339Z,101454.22
2022-08-17T10:12:29.797Z,101455.91
2022-08-17T10:15:22.494Z,101438.69
2022-08-17T10:18:08.808Z,101421.97
2022-08-17T10:21:26.451Z,101395.16
2022-08-17T10:24:28.329Z,101369.47
2022-08-17T10:26:57.613Z,101372.63
2022-08-17T10:29:49.058Z,101355.63
2022-08-17T10:32:37.400Z,101340.31
2022-08-17T10:35:18.639Z,101331.47
2022-08-17T10:38:21.531Z,101327.69
2022-08-17T10:41:01.009Z,101340.78
2022-08-17T10:43:36.868Z,101329.16
2022-08-17T10:46:30.695Z,101335.75
2022-08-17T10:49:17.095Z,101341.97
2022-08-17T10:51:47.951Z,101343.84
2022-08-17T10:54:58.645Z,101332.88
2022-08-17T10:57:34.680Z,101340.16
2022-08-17T11:00:28.434Z,101339.97
2022-08-17T11:02:57.497Z,101338.78
2022-08-17T11:05:58.923Z,101342.31
2022-08-17T11:08:56.584Z,101338.50
2022-08-17T11:11:38.417Z,101342.03
2022-08-17T11:14:34.831Z,101345.00
2022-08-17T11:17:19.343Z,101353.44
2022-08-17T11:20:00.709Z,101356.97
2022-08-17T11:22:45.812Z,101357.81
2022-08-17T11:25:14.909Z,101369.81
2022-08-17T11:27:44.659Z,101364.03
2022-08-17T11:30:15.033Z,101369.94
2022-08-17T11:32:54.560Z,101371.72
2022-08-17T11:35:21.569Z,101381.09
2022-08-17T11:37:48.029Z,101386.50
2022-08-17T11:40:20.628Z,101391.66
2022-08-17T11:43:15.543Z,101393.50
2022-08-17T11:46:05.263Z,101391.22
2022-08-17T11:49:11.592Z,101403.22
2022-08-17T11:52:29.904Z,101417.59
2022-08-17T11:55:17.757Z,101447.38
2022-08-17T11:57:59.767Z,101470.22
2022-08-17T12:00:44.647Z,101469.63
2022-08-17T12:03:36.926Z,101466.56
2022-08-17T12:06:07.376Z,101469.91
2022-08-17T12:08:43.350Z,101472.41
2022-08-17T12:12:10.951Z,101462.66
2022-08-17T12:14:51.720Z,101465.06
2022-08-17T12:17:39.317Z,101474.63
2022-08-17T12:20:29.769Z,101458.59
2022-08-17T12:23:11.194Z,101474.63
2022-08-17T12:25:45.468Z,101476.88
2022-08-17T12:28:27.151Z,101464.69
2022-08-17T12:30:56.300Z,101437.75
2022-08-17T12:33:28.511Z,101422.41
2022-08-17T12:36:05.235Z,101407.91
2022-08-17T12:38:36.120Z,101400.66
2022-08-17T12:41:25.049Z,101393.31
2022-08-17T12:44:12.527Z,101406.38
2022-08-17T12:46:54.418Z,101421.78
2022-08-17T12:49:34.270Z,101420.50
2022-08-17T12:52:06.798Z,101426.75
2022-08-17T12:54:38.123Z,101414.00
2022-08-17T12:57:12.439Z,101416.16
2022-08-17T12:59:53.194Z,101418.44
2022-08-17T13:02:44.376Z,101412.03
2022-08-17T13:05:42.043Z,101411.84
2022-08-17T13:08:20.081Z,101408.81
2022-08-17T13:10:58.582Z,101412.34
2022-08-17T13:13:27.959Z,101408.63
2022-08-17T13:16:01.086Z,101398.38
2022-08-17T13:18:38.318Z,101411.50
2022-08-17T13:21:06.854Z,101406.63
2022-08-17T13:23:33.565Z,101403.09
2022-08-17T13:26:05.316Z,101419.91
2022-08-17T13:28:36.073Z,101403.50
2022-08-17T13:31:33.657Z,101395.25
2022-08-17T13:34:25.390Z,101379.25
2022-08-17T13:37:32.547Z,101370.72
2022-08-17T13:40:10.205Z,101363.84
2022-08-17T13:42:52.023Z,101364.88
2022-08-17T13:45:36.156Z,101368.78
2022-08-17T13:48:17.400Z,101369.81
2022-08-17T13:50:56.065Z,101379.13
2022-08-17T13:53:33.127Z,101380.34
2022-08-17T13:56:07.351Z,101389.25
2022-08-17T13:59:00.159Z,101396.88
2022-08-17T14:01:53.628Z,101383.78
2022-08-17T14:04:24.199Z,101384.63
2022-08-17T14:06:57.806Z,101386.94
2022-08-17T14:09:36.978Z,101384.44
2022-08-17T14:12:06.848Z,101380.53
2022-08-17T14:14:33.362Z,101377.00
2022-08-17T14:16:59.989Z,101366.59
2022-08-17T14:19:26.926Z,101361.66
2022-08-17T14:21:58.806Z,101356.09
2022-08-17T14:24:31.533Z,101359.63
2022-08-17T14:26:59.860Z,101345.69
2022-08-17T14:29:29.308Z,101349.88
2022-08-17T14:31:57.574Z,101348.84
2022-08-17T14:34:25.454Z,101344.66
2022-08-17T14:36:52.384Z,101346.16
2022-08-17T14:39:19.769Z,101341.78
2022-08-17T14:41:46.608Z,101343.00
2022-08-17T14:44:13.331Z,101345.13
2022-08-17T14:46:41.129Z,101347.00
2022-08-17T14:49:09.138Z,101338.44
2022-08-17T14:51:39.376Z,101354.44
2022-08-17T14:54:11.531Z,101340.97
2022-08-17T14:57:04.657Z,101330.09
2022-08-17T14:59:44.512Z,101345.06
2022-08-17T15:02:11.262Z,101339.66
2022-08-17T15:04:41.988Z,101332.19
2022-08-17T15:07:11.543Z,101335.88
2022-08-17T15:09:38.089Z,101333.63
2022-08-17T15:12:08.221Z,101333.81
2022-08-17T15:14:36.123Z,101317.41
2022-08-17T15:17:03.809Z,101316.59
2022-08-17T15:19:30.674Z,101329.47
2022-08-17T15:21:57.383Z,101316.59
2022-08-17T15:24:23.893Z,101316.41
2022-08-17T15:26:51.419Z,101317.59
2022-08-17T15:29:17.974Z,101306.56
2022-08-17T15:31:44.540Z,101306.19
2022-08-17T15:34:11.061Z,101317.59
2022-08-17T15:36:37.812Z,101317.59
2022-08-17T15:39:07.824Z,101309.91
2022-08-17T15:41:34.887Z,101309.72
2022-08-17T15:44:01.424Z,101312.78
2022-08-17T15:46:28.334Z,101315.09
2022-08-17T15:48:59.935Z,101314.25
2022-08-17T15:51:30.456Z,101316.41
2022-08-17T15:54:04.410Z,101319.09
2022-08-17T15:56:44.241Z,101307.84
2022-08-17T15:59:10.823Z,101316.97
2022-08-17T16:03:01.734Z,101315.28
2022-08-17T16:04:29.701Z,101307.22
2022-08-17T16:06:57.354Z,101307.03
2022-08-17T16:09:23.884Z,101320.56
2022-08-17T16:11:53.645Z,101321.19
2022-08-17T16:14:22.607Z,101324.91
2022-08-17T16:16:50.610Z,101330.94
2022-08-17T16:19:17.225Z,101330.56
2022-08-17T16:21:43.765Z,101340.78
2022-08-17T16:24:13.213Z,101339.56
2022-08-17T16:26:40.345Z,101335.19
2022-08-17T16:29:07.789Z,101337.47
2022-08-17T16:31:36.086Z,101339.56
2022-08-17T16:34:17.371Z,101329.63
2022-08-17T16:36:55.473Z,101336.03
2022-08-17T16:39:25.482Z,101340.41
2022-08-17T16:41:51.983Z,101350.34
2022-08-17T16:44:21.107Z,101341.16
2022-08-17T16:46:48.710Z,101347.81
2022-08-17T16:49:35.489Z,101350.72
2022-08-17T16:52:05.442Z,101361.47
2022-08-17T16:54:32.644Z,101353.41
2022-08-17T16:56:59.156Z,101360.66
2022-08-17T16:59:31.120Z,101361.47
2022-08-17T17:02:10.796Z,101360.47
2022-08-17T17:05:03.121Z,101361.03
2022-08-17T17:07:33.677Z,101372.06
2022-08-17T17:10:14.245Z,101371.41
2022-08-17T17:13:02.594Z,101377.28
2022-08-17T17:15:46.031Z,101359.44
2022-08-17T17:18:15.362Z,101357.34
2022-08-17T17:20:54.730Z,101359.03
2022-08-17T17:23:33.926Z,101366.09
2022-08-17T17:26:08.806Z,101359.88
2022-08-17T17:29:00.162Z,101359.88
2022-08-17T17:31:38.444Z,101355.31
2022-08-17T17:34:07.715Z,101346.81
2022-08-17T17:36:48.452Z,101341.19
2022-08-17T17:39:43.596Z,101358.00
2022-08-17T17:42:14.553Z,101351.34
2022-08-17T17:45:04.074Z,101375.00
2022-08-17T17:47:31.489Z,101372.31
2022-08-17T17:50:01.003Z,101369.81
2022-08-17T17:52:40.962Z,101370.22
2022-08-17T17:55:33.608Z,101377.88
2022-08-17T17:58:02.933Z,101385.97
2022-08-17T18:00:39.779Z,101383.28
2022-08-17T18:03:31.093Z,101390.53
2022-08-17T18:06:06.362Z,101393.44
2022-08-17T18:09:06.323Z,101400.88
2022-08-17T18:11:45.231Z,101406.25
2022-08-17T18:14:32.229Z,101414.34
2022-08-17T18:17:00.536Z,101422.97
2022-08-17T18:19:28.836Z,101429.84
2022-08-17T18:22:14.469Z,101419.81
2022-08-17T18:24:44.414Z,101421.94
2022-08-17T18:27:38.279Z,101417.59
2022-08-17T18:30:10.757Z,101414.25
2022-08-17T18:32:46.502Z,101417.13
2022-08-17T18:35:14.226Z,101411.91
2022-08-17T18:37:45.572Z,101411.50
2022-08-17T18:40:26.457Z,101411.31
2022-08-17T18:43:27.127Z,101410.66
2022-08-17T18:45:56.148Z,101418.91
2022-08-17T18:48:52.710Z,101424.66
2022-08-17T18:51:39.850Z,101419.47
2022-08-17T18:54:09.448Z,101430.91
2022-08-17T18:56:43.307Z,101425.69
2022-08-17T18:59:26.919Z,101425.88
2022-08-17T19:01:58.214Z,101429.41
2022-08-17T19:04:28.394Z,101428.75
2022-08-17T19:07:06.874Z,101434.78
2022-08-17T19:09:37.009Z,101435.63
2022-08-17T19:12:08.209Z,101428.31
2022-08-17T19:14:35.619Z,101435.16
2022-08-17T19:17:11.932Z,101437.84
2022-08-17T19:19:55.977Z,101436.22
2022-08-17T19:22:30.992Z,101435.94
2022-08-17T19:25:16.068Z,101447.72
2022-08-17T19:27:57.837Z,101452.56
2022-08-17T19:30:24.974Z,101455.44
2022-08-17T19:32:53.041Z,101458.97
2022-08-17T19:35:24.759Z,101459.97
2022-08-17T19:38:00.728Z,101462.66
2022-08-17T19:40:51.576Z,101470.75
2022-08-17T19:43:28.535Z,101470.75
2022-08-17T19:46:07.160Z,101479.47
2022-08-17T19:48:48.777Z,101475.94
2022-08-17T19:51:30.358Z,101478.47
2022-08-17T19:54:15.051Z,101480.13
2022-08-17T19:56:47.636Z,101479.47
2022-08-17T19:59:20.144Z,101480.50
2022-08-17T20:01:54.712Z,101478.16
2022-08-17T20:04:35.497Z,101482.06
2022-08-17T20:07:08.128Z,101479.19
2022-08-17T20:09:38.306Z,101478.34
2022-08-17T20:12:10.306Z,101476.22
2022-08-17T20:15:07.341Z,101490.72
2022-08-17T20:17:43.356Z,101478.47
2022-08-17T20:20:48.502Z,101485.06
2022-08-17T20:23:49.071Z,101482.72
2022-08-17T20:26:41.408Z,101488.09
2022-08-17T20:29:18.501Z,101460.31
2022-08-17T20:32:06.219Z,101479.84
2022-08-17T20:34:38.099Z,101480.88
2022-08-17T20:37:31.179Z,101474.09
2022-08-17T20:39:57.666Z,101464.34
2022-08-17T20:42:24.356Z,101466.19
2022-08-17T20:44:54.515Z,101460.81
2022-08-17T20:48:15.133Z,101466.19
2022-08-17T20:50:43.484Z,101459.97
2022-08-17T20:53:15.374Z,101452.09
2022-08-17T20:55:52.312Z,101454.97
2022-08-17T20:58:30.869Z,101455.81
2022-08-17T21:00:57.974Z,101453.28
2022-08-17T21:03:25.294Z,101452.59
2022-08-17T21:05:52.627Z,101448.91
2022-08-17T21:08:53.231Z,101453.44
2022-08-17T21:11:57.113Z,101452.78
2022-08-17T21:14:29.351Z,101451.50
2022-08-17T21:17:22.221Z,101458.16
2022-08-17T21:20:10.511Z,101456.72
2022-08-17T21:23:22.696Z,101457.72
2022-08-17T21:26:09.808Z,101460.13
2022-08-17T21:29:00.842Z,101457.63
2022-08-17T21:31:43.119Z,101461.72
2022-08-17T21:34:16.635Z,101462.75
2022-08-17T21:36:45.183Z,101471.66
2022-08-17T21:39:14.338Z,101468.13
2022-08-17T21:41:48.133Z,101475.19
2022-08-17T21:44:17.634Z,101482.19
2022-08-17T21:46:46.924Z,101487.41
2022-08-17T21:49:19.541Z,101482.84
2022-08-17T21:51:54.087Z,101484.09
2022-08-17T21:54:39.851Z,101489.06
2022-08-17T21:57:16.774Z,101484.63
2022-08-17T21:59:44.212Z,101499.75
2022-08-17T22:02:21.576Z,101497.44
2022-08-17T22:05:11.121Z,101490.53
2022-08-17T22:07:50.561Z,101502.16
2022-08-17T22:10:35.328Z,101499.75
2022-08-17T22:13:29.324Z,101489.34
2022-08-17T22:16:28.400Z,101502.94
2022-08-17T22:18:58.132Z,101500.03
2022-08-17T22:21:25.189Z,101495.03
2022-08-17T22:24:06.086Z,101505.22
2022-08-17T22:26:59.442Z,101512.63
2022-08-17T22:29:53.317Z,101509.31
2022-08-17T22:32:44.597Z,101520.09
2022-08-17T22:35:35.921Z,101510.53
2022-08-17T22:38:20.737Z,101516.75
2022-08-17T22:40:53.867Z,101501.31
2022-08-17T22:43:26.584Z,101514.41
2022-08-17T22:45:56.714Z,101501.66
2022-08-17T22:48:27.963Z,101512.91
2022-08-17T22:51:13.881Z,101508.09
2022-08-17T22:54:09.955Z,101511.59
2022-08-17T22:56:55.997Z,101502.91
2022-08-17T22:59:39.264Z,101511.81
2022-08-17T23:02:30.123Z,101509.94
2022-08-17T23:08:01.692Z,101516.63
2022-08-17T23:13:13.892Z,101520.31
2022-08-17T23:15:41.008Z,101520.97
2022-08-17T23:18:07.997Z,101509.56
2022-08-17T23:20:37.184Z,101509.22
2022-08-17T23:23:06.787Z,101506.50
2022-08-17T23:25:34.654Z,101505.84
2022-08-17T23:28:03.260Z,101519.97
2022-08-17T23:30:31.782Z,101511.91
2022-08-17T23:33:01.260Z,101513.56
2022-08-17T23:35:39.354Z,101508.38
2022-08-17T23:38:11.940Z,101508.38
2022-08-17T23:40:39.622Z,101497.78
2022-08-17T23:43:23.356Z,101498.34
2022-08-17T23:45:52.599Z,101505.84
2022-08-17T23:48:36.189Z,101498.34
2022-08-17T23:51:25.616Z,101511.41
2022-08-17T23:53:56.586Z,101513.28
2022-08-17T23:56:25.743Z,101514.09
2022-08-17T23:58:54.800Z,101523.41
